sensor_id;sensor_type;location;lat;lon;timestamp;pressure;altitude;pressure_sealevel;temperature;humidity
41515;BME280;27247;48.020;16.720;2023-04-03T00:03:01;100246.28;;;5.36;77.49
41515;BME280;27247;48.020;16.720;2023-04-03T00:07:12;100244.63;;;5.35;77.17
41515;BME280;27247;48.020;16.720;2023-04-03T00:11:22;100253.66;;;5.32;77.84
41515;BME280;27247;48.020;16.720;2023-04-03T00:15:34;100257.41;;;5.30;78.01
41515;BME280;27247;48.020;16.720;2023-04-03T00:19:44;100247.41;;;5.33;78.56
41515;BME280;27247;48.020;16.720;2023-04-03T00:23:55;100235.97;;;5.33;78.79
41515;BME280;27247;48.020;16.720;2023-04-03T00:28:05;100247.53;;;5.32;79.17
41515;BME280;27247;48.020;16.720;2023-04-03T00:32:16;100242.94;;;5.34;79.25
41515;BME280;27247;48.020;16.720;2023-04-03T00:36:26;100249.88;;;5.25;78.81
41515;BME280;27247;48.020;16.720;2023-04-03T00:40:39;100249.75;;;5.27;79.24
41515;BME280;27247;48.020;16.720;2023-04-03T00:49:08;100248.31;;;5.23;79.22
41515;BME280;27247;48.020;16.720;2023-04-03T00:53:22;100253.13;;;5.18;78.84
41515;BME280;27247;48.020;16.720;2023-04-03T00:57:34;100247.84;;;5.18;79.47
41515;BME280;27247;48.020;16.720;2023-04-03T01:01:45;100252.44;;;5.16;79.66
41515;BME280;27247;48.020;16.720;2023-04-03T01:05:55;100241.13;;;5.13;79.98
41515;BME280;27247;48.020;16.720;2023-04-03T01:10:09;100244.47;;;5.16;79.54
41515;BME280;27247;48.020;16.720;2023-04-03T01:14:20;100245.19;;;5.18;79.20
41515;BME280;27247;48.020;16.720;2023-04-03T01:18:31;100259.28;;;5.18;79.40
41515;BME280;27247;48.020;16.720;2023-04-03T01:22:56;100256.50;;;5.20;79.84
41515;BME280;27247;48.020;16.720;2023-04-03T01:27:09;100255.78;;;5.18;79.69
41515;BME280;27247;48.020;16.720;2023-04-03T01:31:25;100244.22;;;5.19;79.73
41515;BME280;27247;48.020;16.720;2023-04-03T01:35:37;100257.03;;;5.13;79.91
41515;BME280;27247;48.020;16.720;2023-04-03T01:39:47;100263.03;;;5.16;80.25
41515;BME280;27247;48.020;16.720;2023-04-03T01:43:58;100260.78;;;5.11;80.36
41515;BME280;27247;48.020;16.720;2023-04-03T01:48:08;100263.56;;;5.09;80.09
41515;BME280;27247;48.020;16.720;2023-04-03T01:52:18;100267.44;;;5.05;80.22
41515;BME280;27247;48.020;16.720;2023-04-03T01:56:29;100259.16;;;4.99;80.87
41515;BME280;27247;48.020;16.720;2023-04-03T02:00:39;100264.59;;;4.97;81.43
41515;BME280;27247;48.020;16.720;2023-04-03T02:04:50;100260.53;;;4.93;80.67
41515;BME280;27247;48.020;16.720;2023-04-03T02:09:00;100252.25;;;4.87;81.62
41515;BME280;27247;48.020;16.720;2023-04-03T02:13:10;100258.78;;;4.82;82.40
41515;BME280;27247;48.020;16.720;2023-04-03T02:17:21;100270.53;;;4.90;82.73
41515;BME280;27247;48.020;16.720;2023-04-03T02:21:31;100269.44;;;4.92;83.21
41515;BME280;27247;48.020;16.720;2023-04-03T02:25:42;100261.88;;;4.88;82.08
41515;BME280;27247;48.020;16.720;2023-04-03T02:29:52;100272.47;;;4.88;81.74
41515;BME280;27247;48.020;16.720;2023-04-03T02:34:02;100270.19;;;4.83;81.21
41515;BME280;27247;48.020;16.720;2023-04-03T02:38:13;100271.44;;;4.79;82.31
41515;BME280;27247;48.020;16.720;2023-04-03T02:42:23;100277.34;;;4.71;82.08
41515;BME280;27247;48.020;16.720;2023-04-03T02:46:33;100280.72;;;4.73;81.80
41515;BME280;27247;48.020;16.720;2023-04-03T02:50:44;100289.63;;;4.72;82.62
41515;BME280;27247;48.020;16.720;2023-04-03T02:54:54;100288.78;;;4.72;82.54
41515;BME280;27247;48.020;16.720;2023-04-03T02:59:05;100298.28;;;4.74;82.57
41515;BME280;27247;48.020;16.720;2023-04-03T03:03:16;100294.59;;;4.66;80.95
41515;BME280;27247;48.020;16.720;2023-04-03T03:07:26;100296.00;;;4.70;81.58
41515;BME280;27247;48.020;16.720;2023-04-03T03:11:36;100302.88;;;4.72;82.13
41515;BME280;27247;48.020;16.720;2023-04-03T03:15:47;100306.59;;;4.70;82.99
41515;BME280;27247;48.020;16.720;2023-04-03T03:19:57;100308.66;;;4.66;82.50
41515;BME280;27247;48.020;16.720;2023-04-03T03:24:08;100305.81;;;4.58;82.76
41515;BME280;27247;48.020;16.720;2023-04-03T03:28:18;100305.97;;;4.45;82.34
41515;BME280;27247;48.020;16.720;2023-04-03T03:32:28;100317.78;;;4.41;82.15
41515;BME280;27247;48.020;16.720;2023-04-03T03:36:39;100316.47;;;4.36;82.59
41515;BME280;27247;48.020;16.720;2023-04-03T03:40:50;100328.84;;;4.35;82.42
41515;BME280;27247;48.020;16.720;2023-04-03T03:45:01;100317.41;;;4.35;82.40
41515;BME280;27247;48.020;16.720;2023-04-03T03:49:11;100310.44;;;4.34;82.24
41515;BME280;27247;48.020;16.720;2023-04-03T03:53:22;100312.72;;;4.38;82.22
41515;BME280;27247;48.020;16.720;2023-04-03T03:57:32;100315.38;;;4.38;82.28
41515;BME280;27247;48.020;16.720;2023-04-03T04:01:43;100317.19;;;4.38;81.34
41515;BME280;27247;48.020;16.720;2023-04-03T04:05:53;100321.75;;;4.36;81.62
41515;BME280;27247;48.020;16.720;2023-04-03T04:10:04;100314.19;;;4.31;81.34
41515;BME280;27247;48.020;16.720;2023-04-03T04:14:14;100327.75;;;4.38;82.73
41515;BME280;27247;48.020;16.720;2023-04-03T04:18:25;100329.19;;;4.42;83.33
41515;BME280;27247;48.020;16.720;2023-04-03T04:22:35;100323.31;;;4.38;83.94
41515;BME280;27247;48.020;16.720;2023-04-03T04:26:46;100335.81;;;4.36;84.29
41515;BME280;27247;48.020;16.720;2023-04-03T04:30:56;100335.94;;;4.35;84.18
41515;BME280;27247;48.020;16.720;2023-04-03T04:35:07;100338.72;;;4.33;84.28
41515;BME280;27247;48.020;16.720;2023-04-03T04:39:17;100335.09;;;4.34;84.60
41515;BME280;27247;48.020;16.720;2023-04-03T04:43:27;100344.97;;;4.32;83.97
41515;BME280;27247;48.020;16.720;2023-04-03T04:47:38;100335.47;;;4.30;83.24
41515;BME280;27247;48.020;16.720;2023-04-03T04:51:48;100344.38;;;4.29;82.80
41515;BME280;27247;48.020;16.720;2023-04-03T04:55:58;100347.75;;;4.31;83.09
41515;BME280;27247;48.020;16.720;2023-04-03T05:00:09;100340.50;;;4.33;82.79
41515;BME280;27247;48.020;16.720;2023-04-03T05:04:20;100344.72;;;4.35;82.60
41515;BME280;27247;48.020;16.720;2023-04-03T05:08:31;100348.94;;;4.38;82.63
41515;BME280;27247;48.020;16.720;2023-04-03T05:12:41;100342.19;;;4.34;81.91
41515;BME280;27247;48.020;16.720;2023-04-03T05:16:51;100355.78;;;4.29;81.60
41515;BME280;27247;48.020;16.720;2023-04-03T05:21:04;100348.09;;;4.26;82.27
41515;BME280;27247;48.020;16.720;2023-04-03T05:25:14;100351.72;;;4.25;82.40
41515;BME280;27247;48.020;16.720;2023-04-03T05:29:25;100362.03;;;4.28;81.62
41515;BME280;27247;48.020;16.720;2023-04-03T05:33:35;100356.16;;;4.36;81.80
41515;BME280;27247;48.020;16.720;2023-04-03T05:37:45;100362.53;;;4.33;81.78
41515;BME280;27247;48.020;16.720;2023-04-03T05:41:56;100358.44;;;4.29;81.64
41515;BME280;27247;48.020;16.720;2023-04-03T05:46:15;100368.91;;;4.31;82.36
41515;BME280;27247;48.020;16.720;2023-04-03T05:50:25;100358.94;;;4.23;82.62
41515;BME280;27247;48.020;16.720;2023-04-03T05:54:36;100370.72;;;4.19;82.93
41515;BME280;27247;48.020;16.720;2023-04-03T05:58:46;100360.47;;;4.14;82.61
41515;BME280;27247;48.020;16.720;2023-04-03T06:02:56;100353.38;;;4.15;83.37
41515;BME280;27247;48.020;16.720;2023-04-03T06:07:13;100360.72;;;4.23;83.02
41515;BME280;27247;48.020;16.720;2023-04-03T06:11:25;100366.97;;;4.33;82.48
41515;BME280;27247;48.020;16.720;2023-04-03T06:15:36;100369.97;;;4.39;82.91
41515;BME280;27247;48.020;16.720;2023-04-03T06:19:47;100375.72;;;4.44;82.00
41515;BME280;27247;48.020;16.720;2023-04-03T06:23:57;100377.63;;;4.54;82.89
41515;BME280;27247;48.020;16.720;2023-04-03T06:28:08;100384.00;;;4.62;82.30
41515;BME280;27247;48.020;16.720;2023-04-03T06:32:20;100383.03;;;4.63;82.01
41515;BME280;27247;48.020;16.720;2023-04-03T06:36:30;100383.75;;;4.65;82.80
41515;BME280;27247;48.020;16.720;2023-04-03T06:40:40;100388.72;;;4.47;81.32
41515;BME280;27247;48.020;16.720;2023-04-03T06:44:51;100388.13;;;4.44;81.13
41515;BME280;27247;48.020;16.720;2023-04-03T06:49:01;100393.19;;;4.36;80.87
41515;BME280;27247;48.020;16.720;2023-04-03T06:53:12;100402.94;;;4.24;81.32
41515;BME280;27247;48.020;16.720;2023-04-03T06:57:22;100410.63;;;4.27;81.44
41515;BME280;27247;48.020;16.720;2023-04-03T07:01:33;100411.59;;;4.26;81.33
41515;BME280;27247;48.020;16.720;2023-04-03T07:05:43;100414.00;;;4.18;80.83
41515;BME280;27247;48.020;16.720;2023-04-03T07:09:54;100420.84;;;4.21;81.08
41515;BME280;27247;48.020;16.720;2023-04-03T07:14:05;100419.66;;;4.25;81.43
41515;BME280;27247;48.020;16.720;2023-04-03T07:18:16;100423.59;;;4.30;80.34
41515;BME280;27247;48.020;16.720;2023-04-03T07:22:27;100422.53;;;4.33;80.31
41515;BME280;27247;48.020;16.720;2023-04-03T07:26:37;100430.47;;;4.33;79.81
41515;BME280;27247;48.020;16.720;2023-04-03T07:30:50;100441.16;;;4.42;79.58
41515;BME280;27247;48.020;16.720;2023-04-03T07:35:01;100442.00;;;4.54;78.03
41515;BME280;27247;48.020;16.720;2023-04-03T07:39:11;100435.84;;;4.65;76.12
41515;BME280;27247;48.020;16.720;2023-04-03T07:43:22;100434.75;;;4.67;72.93
41515;BME280;27247;48.020;16.720;2023-04-03T07:47:34;100443.41;;;4.69;72.23
41515;BME280;27247;48.020;16.720;2023-04-03T07:51:46;100441.59;;;4.81;71.56
41515;BME280;27247;48.020;16.720;2023-04-03T07:55:58;100449.66;;;4.68;69.17
41515;BME280;27247;48.020;16.720;2023-04-03T08:00:09;100449.31;;;4.73;71.20
41515;BME280;27247;48.020;16.720;2023-04-03T08:04:19;100466.75;;;4.64;68.31
41515;BME280;27247;48.020;16.720;2023-04-03T08:08:30;100470.25;;;4.65;68.25
41515;BME280;27247;48.020;16.720;2023-04-03T08:12:41;100467.84;;;4.51;65.55
41515;BME280;27247;48.020;16.720;2023-04-03T08:16:52;100459.31;;;4.47;65.39
41515;BME280;27247;48.020;16.720;2023-04-03T08:21:06;100451.44;;;4.79;65.67
41515;BME280;27247;48.020;16.720;2023-04-03T08:25:16;100462.41;;;5.18;66.77
41515;BME280;27247;48.020;16.720;2023-04-03T08:29:27;100451.97;;;5.48;64.94
41515;BME280;27247;48.020;16.720;2023-04-03T08:33:38;100438.53;;;5.82;63.74
41515;BME280;27247;48.020;16.720;2023-04-03T08:37:49;100446.53;;;5.50;63.37
41515;BME280;27247;48.020;16.720;2023-04-03T08:42:04;100454.84;;;5.24;64.33
41515;BME280;27247;48.020;16.720;2023-04-03T08:46:18;100459.38;;;4.90;62.52
41515;BME280;27247;48.020;16.720;2023-04-03T08:50:37;100469.34;;;4.98;64.29
41515;BME280;27247;48.020;16.720;2023-04-03T08:54:53;100463.16;;;5.08;64.91
41515;BME280;27247;48.020;16.720;2023-04-03T08:59:11;100448.47;;;5.16;62.68
41515;BME280;27247;48.020;16.720;2023-04-03T09:03:22;100446.44;;;5.08;60.87
41515;BME280;27247;48.020;16.720;2023-04-03T09:08:24;100456.13;;;4.87;62.31
41515;BME280;27247;48.020;16.720;2023-04-03T09:12:23;100461.91;;;4.92;63.22
41515;BME280;27247;48.020;16.720;2023-04-03T09:16:57;100474.28;;;4.91;62.79
41515;BME280;27247;48.020;16.720;2023-04-03T09:21:25;100473.31;;;5.03;62.17
41515;BME280;27247;48.020;16.720;2023-04-03T09:25:38;100472.81;;;5.21;61.99
41515;BME280;27247;48.020;16.720;2023-04-03T09:29:49;100471.75;;;5.44;62.15
41515;BME280;27247;48.020;16.720;2023-04-03T09:34:06;100460.97;;;5.57;61.12
41515;BME280;27247;48.020;16.720;2023-04-03T09:38:21;100466.88;;;6.02;61.18
41515;BME280;27247;48.020;16.720;2023-04-03T09:42:32;100455.22;;;5.93;58.55
41515;BME280;27247;48.020;16.720;2023-04-03T09:46:42;100473.50;;;5.75;59.61
41515;BME280;27247;48.020;16.720;2023-04-03T09:50:58;100472.56;;;5.24;57.41
41515;BME280;27247;48.020;16.720;2023-04-03T09:55:23;100461.13;;;5.12;57.38
41515;BME280;27247;48.020;16.720;2023-04-03T09:59:45;100462.28;;;5.19;57.45
41515;BME280;27247;48.020;16.720;2023-04-03T10:04:22;100459.34;;;5.44;59.27
41515;BME280;27247;48.020;16.720;2023-04-03T10:08:35;100448.22;;;5.71;55.19
41515;BME280;27247;48.020;16.720;2023-04-03T10:12:46;100462.16;;;5.32;53.49
41515;BME280;27247;48.020;16.720;2023-04-03T10:25:53;100460.91;;;5.68;55.27
41515;BME280;27247;48.020;16.720;2023-04-03T10:30:36;100460.06;;;6.09;54.30
41515;BME280;27247;48.020;16.720;2023-04-03T10:39:36;100456.06;;;6.85;52.93
41515;BME280;27247;48.020;16.720;2023-04-03T10:52:46;100467.28;;;6.49;50.81
41515;BME280;27247;48.020;16.720;2023-04-03T10:57:06;100451.25;;;6.69;48.77
41515;BME280;27247;48.020;16.720;2023-04-03T11:01:24;100455.59;;;7.30;51.07
41515;BME280;27247;48.020;16.720;2023-04-03T11:05:47;100454.88;;;7.38;48.87
41515;BME280;27247;48.020;16.720;2023-04-03T11:10:09;100445.56;;;6.84;52.63
41515;BME280;27247;48.020;16.720;2023-04-03T11:18:39;100461.53;;;6.44;52.89
41515;BME280;27247;48.020;16.720;2023-04-03T11:22:58;100458.38;;;7.38;52.21
41515;BME280;27247;48.020;16.720;2023-04-03T11:27:17;100446.19;;;7.74;49.63
41515;BME280;27247;48.020;16.720;2023-04-03T11:35:48;100446.84;;;7.86;50.85
41515;BME280;27247;48.020;16.720;2023-04-03T11:40:07;100453.06;;;7.38;52.80
41515;BME280;27247;48.020;16.720;2023-04-03T11:44:38;100469.63;;;6.92;53.23
41515;BME280;27247;48.020;16.720;2023-04-03T11:48:50;100464.34;;;7.21;52.08
41515;BME280;27247;48.020;16.720;2023-04-03T11:53:09;100446.19;;;7.26;51.22
41515;BME280;27247;48.020;16.720;2023-04-03T11:57:44;100436.22;;;6.99;48.05
41515;BME280;27247;48.020;16.720;2023-04-03T12:01:56;100444.25;;;6.59;48.24
41515;BME280;27247;48.020;16.720;2023-04-03T12:10:23;100433.75;;;7.55;48.81
41515;BME280;27247;48.020;16.720;2023-04-03T12:14:33;100430.41;;;6.55;50.61
41515;BME280;27247;48.020;16.720;2023-04-03T12:23:31;100423.31;;;6.75;51.08
41515;BME280;27247;48.020;16.720;2023-04-03T12:27:42;100420.97;;;6.82;49.64
41515;BME280;27247;48.020;16.720;2023-04-03T12:36:42;100412.03;;;7.12;49.57
41515;BME280;27247;48.020;16.720;2023-04-03T12:45:23;100417.72;;;6.68;52.65
41515;BME280;27247;48.020;16.720;2023-04-03T12:49:38;100422.31;;;6.66;52.34
41515;BME280;27247;48.020;16.720;2023-04-03T12:53:51;100423.94;;;6.48;51.85
41515;BME280;27247;48.020;16.720;2023-04-03T12:58:31;100421.63;;;6.24;51.10
41515;BME280;27247;48.020;16.720;2023-04-03T13:02:44;100421.88;;;6.21;52.29
41515;BME280;27247;48.020;16.720;2023-04-03T13:06:55;100420.03;;;5.91;50.77
41515;BME280;27247;48.020;16.720;2023-04-03T13:11:09;100426.16;;;6.13;50.48
41515;BME280;27247;48.020;16.720;2023-04-03T13:15:40;100407.00;;;6.09;50.88
41515;BME280;27247;48.020;16.720;2023-04-03T13:19:51;100421.47;;;5.95;49.89
41515;BME280;27247;48.020;16.720;2023-04-03T13:24:02;100424.28;;;5.83;50.41
41515;BME280;27247;48.020;16.720;2023-04-03T13:28:18;100428.81;;;5.71;51.23
41515;BME280;27247;48.020;16.720;2023-04-03T13:32:30;100423.38;;;5.72;51.39
41515;BME280;27247;48.020;16.720;2023-04-03T13:36:54;100436.16;;;5.26;51.85
41515;BME280;27247;48.020;16.720;2023-04-03T13:41:24;100430.63;;;5.18;51.50
41515;BME280;27247;48.020;16.720;2023-04-03T13:45:35;100446.72;;;5.37;51.42
41515;BME280;27247;48.020;16.720;2023-04-03T13:50:04;100421.19;;;5.57;50.23
41515;BME280;27247;48.020;16.720;2023-04-03T13:54:28;100420.03;;;5.50;50.29
41515;BME280;27247;48.020;16.720;2023-04-03T13:58:39;100399.88;;;6.09;50.36
41515;BME280;27247;48.020;16.720;2023-04-03T14:02:54;100405.91;;;6.12;50.44
41515;BME280;27247;48.020;16.720;2023-04-03T14:07:06;100415.63;;;5.81;49.90
41515;BME280;27247;48.020;16.720;2023-04-03T14:11:24;100420.75;;;5.72;50.18
41515;BME280;27247;48.020;16.720;2023-04-03T14:15:34;100405.19;;;6.09;49.10
41515;BME280;27247;48.020;16.720;2023-04-03T14:19:46;100402.50;;;5.58;47.21
41515;BME280;27247;48.020;16.720;2023-04-03T14:23:57;100402.84;;;5.44;49.27
41515;BME280;27247;48.020;16.720;2023-04-03T14:28:34;100382.13;;;5.80;49.29
41515;BME280;27247;48.020;16.720;2023-04-03T14:32:45;100396.81;;;5.63;49.18
41515;BME280;27247;48.020;16.720;2023-04-03T14:36:56;100396.44;;;5.26;48.93
41515;BME280;27247;48.020;16.720;2023-04-03T14:41:07;100400.78;;;5.89;49.33
41515;BME280;27247;48.020;16.720;2023-04-03T14:45:18;100392.91;;;5.88;49.00
41515;BME280;27247;48.020;16.720;2023-04-03T14:49:29;100408.50;;;5.81;49.57
41515;BME280;27247;48.020;16.720;2023-04-03T14:53:40;100394.88;;;5.65;49.81
41515;BME280;27247;48.020;16.720;2023-04-03T14:57:51;100379.75;;;5.56;49.65
41515;BME280;27247;48.020;16.720;2023-04-03T15:02:22;100383.41;;;5.85;48.98
41515;BME280;27247;48.020;16.720;2023-04-03T15:06:34;100394.41;;;5.81;49.50
41515;BME280;27247;48.020;16.720;2023-04-03T15:10:45;100404.31;;;5.99;49.93
41515;BME280;27247;48.020;16.720;2023-04-03T15:14:55;100384.47;;;5.94;49.76
41515;BME280;27247;48.020;16.720;2023-04-03T15:19:06;100384.53;;;5.62;48.75
41515;BME280;27247;48.020;16.720;2023-04-03T15:23:16;100397.53;;;5.23;48.74
41515;BME280;27247;48.020;16.720;2023-04-03T15:27:27;100394.75;;;5.13;49.91
41515;BME280;27247;48.020;16.720;2023-04-03T15:31:38;100394.56;;;5.37;49.75
41515;BME280;27247;48.020;16.720;2023-04-03T15:35:48;100399.28;;;5.55;50.06
41515;BME280;27247;48.020;16.720;2023-04-03T15:39:59;100412.00;;;5.40;50.00
41515;BME280;27247;48.020;16.720;2023-04-03T15:44:09;100415.94;;;5.25;50.00
41515;BME280;27247;48.020;16.720;2023-04-03T15:48:20;100415.28;;;5.00;49.09
41515;BME280;27247;48.020;16.720;2023-04-03T15:52:30;100405.72;;;5.20;49.38
41515;BME280;27247;48.020;16.720;2023-04-03T15:56:40;100411.47;;;5.25;49.90
41515;BME280;27247;48.020;16.720;2023-04-03T16:00:51;100416.91;;;5.24;49.84
41515;BME280;27247;48.020;16.720;2023-04-03T16:05:02;100421.50;;;5.10;50.81
41515;BME280;27247;48.020;16.720;2023-04-03T16:09:12;100422.09;;;4.82;50.31
41515;BME280;27247;48.020;16.720;2023-04-03T16:13:23;100428.97;;;4.73;50.70
41515;BME280;27247;48.020;16.720;2023-04-03T16:17:34;100435.34;;;4.71;50.64
41515;BME280;27247;48.020;16.720;2023-04-03T16:21:45;100427.16;;;4.74;50.58
41515;BME280;27247;48.020;16.720;2023-04-03T16:25:56;100436.91;;;4.73;50.96
41515;BME280;27247;48.020;16.720;2023-04-03T16:30:08;100425.97;;;4.67;50.27
41515;BME280;27247;48.020;16.720;2023-04-03T16:34:18;100441.63;;;4.47;50.41
41515;BME280;27247;48.020;16.720;2023-04-03T16:38:29;100434.19;;;4.41;51.17
41515;BME280;27247;48.020;16.720;2023-04-03T16:42:39;100449.09;;;4.31;51.06
41515;BME280;27247;48.020;16.720;2023-04-03T16:46:50;100443.94;;;4.19;50.55
41515;BME280;27247;48.020;16.720;2023-04-03T16:51:01;100447.50;;;4.06;50.84
41515;BME280;27247;48.020;16.720;2023-04-03T16:55:11;100443.53;;;4.01;51.28
41515;BME280;27247;48.020;16.720;2023-04-03T16:59:22;100457.22;;;3.95;50.96
41515;BME280;27247;48.020;16.720;2023-04-03T17:03:33;100457.34;;;3.93;51.39
41515;BME280;27247;48.020;16.720;2023-04-03T17:07:43;100454.94;;;3.90;51.73
41515;BME280;27247;48.020;16.720;2023-04-03T17:11:53;100464.53;;;3.80;51.15
41515;BME280;27247;48.020;16.720;2023-04-03T17:16:06;100459.81;;;3.72;51.63
41515;BME280;27247;48.020;16.720;2023-04-03T17:20:17;100465.94;;;3.62;51.94
41515;BME280;27247;48.020;16.720;2023-04-03T17:24:28;100462.56;;;3.60;51.88
41515;BME280;27247;48.020;16.720;2023-04-03T17:28:39;100454.13;;;3.55;51.46
41515;BME280;27247;48.020;16.720;2023-04-03T17:32:50;100475.28;;;3.55;52.19
41515;BME280;27247;48.020;16.720;2023-04-03T17:37:01;100472.97;;;3.50;52.23
41515;BME280;27247;48.020;16.720;2023-04-03T17:41:12;100464.94;;;3.51;51.96
41515;BME280;27247;48.020;16.720;2023-04-03T17:45:22;100479.09;;;3.50;51.74
41515;BME280;27247;48.020;16.720;2023-04-03T17:49:33;100488.78;;;3.39;51.90
41515;BME280;27247;48.020;16.720;2023-04-03T17:53:43;100496.72;;;3.39;52.11
41515;BME280;27247;48.020;16.720;2023-04-03T17:57:54;100483.84;;;3.34;53.00
41515;BME280;27247;48.020;16.720;2023-04-03T18:02:04;100498.97;;;3.32;52.51
41515;BME280;27247;48.020;16.720;2023-04-03T18:06:18;100498.56;;;3.26;53.13
41515;BME280;27247;48.020;16.720;2023-04-03T18:10:29;100499.97;;;3.18;52.78
41515;BME280;27247;48.020;16.720;2023-04-03T18:14:40;100503.06;;;3.12;53.13
41515;BME280;27247;48.020;16.720;2023-04-03T18:18:51;100509.47;;;3.08;52.94
41515;BME280;27247;48.020;16.720;2023-04-03T18:23:02;100516.44;;;3.09;53.25
41515;BME280;27247;48.020;16.720;2023-04-03T18:27:14;100524.25;;;3.11;53.44
41515;BME280;27247;48.020;16.720;2023-04-03T18:31:26;100535.47;;;3.02;53.49
41515;BME280;27247;48.020;16.720;2023-04-03T18:35:40;100538.84;;;3.04;53.69
41515;BME280;27247;48.020;16.720;2023-04-03T18:39:51;100540.16;;;2.98;54.28
41515;BME280;27247;48.020;16.720;2023-04-03T18:44:04;100555.34;;;2.95;53.80
41515;BME280;27247;48.020;16.720;2023-04-03T18:48:16;100562.66;;;2.91;54.22
41515;BME280;27247;48.020;16.720;2023-04-03T18:52:27;100566.88;;;2.94;54.38
41515;BME280;27247;48.020;16.720;2023-04-03T18:56:38;100573.84;;;2.95;54.05
41515;BME280;27247;48.020;16.720;2023-04-03T19:00:49;100581.34;;;2.88;54.59
41515;BME280;27247;48.020;16.720;2023-04-03T19:05:00;100585.56;;;2.91;54.04
41515;BME280;27247;48.020;16.720;2023-04-03T19:09:10;100590.22;;;2.87;54.14
41515;BME280;27247;48.020;16.720;2023-04-03T19:13:21;100593.59;;;2.89;54.69
41515;BME280;27247;48.020;16.720;2023-04-03T19:17:32;100607.75;;;2.88;54.72
41515;BME280;27247;48.020;16.720;2023-04-03T19:21:42;100614.91;;;2.86;55.09
41515;BME280;27247;48.020;16.720;2023-04-03T19:26:00;100613.22;;;2.85;55.15
41515;BME280;27247;48.020;16.720;2023-04-03T19:30:12;100622.41;;;2.79;55.23
41515;BME280;27247;48.020;16.720;2023-04-03T19:34:26;100626.84;;;2.79;55.75
41515;BME280;27247;48.020;16.720;2023-04-03T19:38:37;100626.00;;;2.78;55.15
41515;BME280;27247;48.020;16.720;2023-04-03T19:42:48;100634.97;;;2.76;55.46
41515;BME280;27247;48.020;16.720;2023-04-03T19:47:00;100634.88;;;2.77;55.49
41515;BME280;27247;48.020;16.720;2023-04-03T19:51:11;100636.03;;;2.73;55.59
41515;BME280;27247;48.020;16.720;2023-04-03T19:55:22;100639.75;;;2.71;55.79
41515;BME280;27247;48.020;16.720;2023-04-03T19:59:34;100639.00;;;2.69;55.50
41515;BME280;27247;48.020;16.720;2023-04-03T20:03:46;100649.13;;;2.62;56.01
41515;BME280;27247;48.020;16.720;2023-04-03T20:07:58;100660.31;;;2.66;55.81
41515;BME280;27247;48.020;16.720;2023-04-03T20:12:09;100651.56;;;2.52;56.30
41515;BME280;27247;48.020;16.720;2023-04-03T20:16:21;100655.97;;;2.52;56.61
41515;BME280;27247;48.020;16.720;2023-04-03T20:20:35;100647.13;;;2.53;56.63
41515;BME280;27247;48.020;16.720;2023-04-03T20:24:50;100649.22;;;2.48;56.71
41515;BME280;27247;48.020;16.720;2023-04-03T20:29:01;100649.31;;;2.46;56.61
41515;BME280;27247;48.020;16.720;2023-04-03T20:33:12;100653.56;;;2.49;57.28
41515;BME280;27247;48.020;16.720;2023-04-03T20:37:23;100645.75;;;2.47;56.34
41515;BME280;27247;48.020;16.720;2023-04-03T20:41:34;100646.78;;;2.45;57.00
41515;BME280;27247;48.020;16.720;2023-04-03T20:45:48;100642.38;;;2.45;56.62
41515;BME280;27247;48.020;16.720;2023-04-03T20:49:58;100639.41;;;2.37;56.62
41515;BME280;27247;48.020;16.720;2023-04-03T20:54:09;100636.03;;;2.35;56.84
41515;BME280;27247;48.020;16.720;2023-04-03T20:58:19;100626.84;;;2.28;57.07
41515;BME280;27247;48.020;16.720;2023-04-03T21:02:33;100622.94;;;2.21;57.33
41515;BME280;27247;48.020;16.720;2023-04-03T21:20:30;100602.38;;;2.26;56.83
41515;BME280;27247;48.020;16.720;2023-04-03T21:24:42;100586.53;;;2.26;56.78
41515;BME280;27247;48.020;16.720;2023-04-03T21:28:53;100585.91;;;2.22;56.90
41515;BME280;27247;48.020;16.720;2023-04-03T21:33:04;100582.63;;;2.19;56.85
41515;BME280;27247;48.020;16.720;2023-04-03T21:37:14;100575.63;;;2.05;57.01
41515;BME280;27247;48.020;16.720;2023-04-03T21:41:25;100571.94;;;2.08;56.71
41515;BME280;27247;48.020;16.720;2023-04-03T21:45:35;100560.22;;;1.99;56.75
41515;BME280;27247;48.020;16.720;2023-04-03T21:49:48;100556.09;;;1.95;56.41
41515;BME280;27247;48.020;16.720;2023-04-03T21:53:58;100558.63;;;1.84;57.48
41515;BME280;27247;48.020;16.720;2023-04-03T21:58:09;100551.75;;;1.81;57.36
41515;BME280;27247;48.020;16.720;2023-04-03T22:02:19;100559.88;;;1.78;57.31
41515;BME280;27247;48.020;16.720;2023-04-03T22:06:30;100556.41;;;1.78;56.90
41515;BME280;27247;48.020;16.720;2023-04-03T22:10:40;100549.34;;;1.78;56.60
41515;BME280;27247;48.020;16.720;2023-04-03T22:14:51;100531.94;;;1.76;57.17
41515;BME280;27247;48.020;16.720;2023-04-03T22:19:01;100535.31;;;1.78;57.39
41515;BME280;27247;48.020;16.720;2023-04-03T22:23:12;100540.16;;;1.71;57.58
41515;BME280;27247;48.020;16.720;2023-04-03T22:27:22;100526.75;;;1.62;58.11
41515;BME280;27247;48.020;16.720;2023-04-03T22:31:32;100522.31;;;1.62;58.52
41515;BME280;27247;48.020;16.720;2023-04-03T22:35:47;100531.16;;;1.61;58.92
41515;BME280;27247;48.020;16.720;2023-04-03T22:39:58;100541.91;;;1.58;58.43
41515;BME280;27247;48.020;16.720;2023-04-03T22:44:08;100545.03;;;1.50;59.35
41515;BME280;27247;48.020;16.720;2023-04-03T22:48:19;100539.69;;;1.52;59.00
41515;BME280;27247;48.020;16.720;2023-04-03T22:52:30;100540.47;;;1.40;59.45
41515;BME280;27247;48.020;16.720;2023-04-03T22:56:41;100522.78;;;1.42;58.52
41515;BME280;27247;48.020;16.720;2023-04-03T23:00:52;100519.63;;;1.37;58.83
41515;BME280;27247;48.020;16.720;2023-04-03T23:05:03;100513.72;;;1.33;58.92
41515;BME280;27247;48.020;16.720;2023-04-03T23:09:14;100505.47;;;1.25;58.73